Hlavní strana
METAR-TAF:

METAR-TAF

Letiště :

Joensuu, Finsko

zeměpisná šířka: 62-40N, zeměpisná délka: 029-38E, výška: 119 m

Aktuální stav počasí

Zpráva byla vytvořena před 18 minutami, v 05:50 UTC
Severoseverozápadní vítr 2 kt
Teplota -2°C
Vlhkost vzduchu 93%
Tlak 1033 hPa
Viditelnost 10 km a více
Skoro jasno ve výšce 800 ft
Zataženo ve výšce 3200 ft

METAR: EFJO 130550Z 33002KT 9999 FEW008 OVC032 M02/M03 Q1033

Čas: 08:08 (06:08 UTC)

Předpověď počasí

Zpráva byla vytvořena před 35 minutami, v 05:33 UTC
Předpověď platná od 13 v 06 UTC do 13 v 15 UTC
Severoseverozápadní vítr 4 kt
Viditelnost 10 km a více
Polojasno ve výšce 700 ft
Oblačno až skoro zataženo ve výšce 1500 ft
Dočasný
od 13 v 06 UTC do 13 v 12 UTC
Oblačno až skoro zataženo ve výšce 800 ft

TAF: EFJO 130533Z 1306/1315 33004KT 9999 SCT007 BKN015 TEMPO 1306/1312 BKN008

Stav a předpovědi počasí z více než 4 000 letišť (zprávy METAR a TAF).

Červené a žluté tečky na mapě představují dostupné meteorologické stanice.

Když kurzor umístíte na tečku, zobrazí se název stanice.

Pak kliknutím zobrazíte stav a předpověď počasí.

Chcete-li změnit mapu, kliknutím na zelené tlačítko se znaménkem +mapu přiblížíte, kliknutím na zelené tlačítko se znaménkem – mapu oddálíte a kliknutím na zelené šipky přejdete na sousední mapy.


METAR-TAF: